Time;durP1;ratioP1;P1;durP2;ratioP2;P2;SDS_P1;SDS_P2;PMS_P1;PMS_P2;Temp;Humidity;BMP_temperature;BMP_pressure;BME280_temperature;BME280_humidity;BME280_pressure;Samples;Min_cycle;Max_cycle;Signal;HPM_P1;HPM_P2
2023/07/11 00:01:49;;;;;;;;;2.33;0.67;;;;;-146.67;29.36;73893.03;5079885;27;63856;-81
2023/07/11 00:04:14;;;;;;;;;2.00;2.00;;;;;-146.67;29.08;73899.03;5082344;27;61857;-82
2023/07/11 00:06:39;;;;;;;;;1.67;1.00;;;;;-146.67;29.40;73889.03;5083322;28;61922;-82
2023/07/11 00:09:05;;;;;;;;;1.33;1.33;;;;;-146.67;29.37;73899.03;5101856;27;62083;-82
2023/07/11 00:11:30;;;;;;;;;3.33;1.67;;;;;-146.67;29.66;73901.03;5084779;27;62846;-81
2023/07/11 00:13:59;;;;;;;;;3.67;0.67;;;;;-146.67;29.52;73907.00;5085713;28;62101;-82
2023/07/11 00:16:25;;;;;;;;;1.67;1.67;;;;;-146.67;29.65;73907.00;5101512;27;61971;-81
2023/07/11 00:18:50;;;;;;;;;1.00;1.00;;;;;-146.67;30.09;73913.00;5083520;27;61984;-81
2023/07/11 00:21:16;;;;;;;;;4.67;1.67;;;;;-146.67;29.82;73917.00;5099668;27;64658;-81
2023/07/11 00:23:41;;;;;;;;;3.00;2.00;;;;;-146.67;29.93;73924.97;5100156;27;62349;-81
2023/07/11 00:26:06;;;;;;;;;2.00;2.00;;;;;-146.67;30.09;73918.97;5100046;27;61819;-81
2023/07/11 00:28:32;;;;;;;;;3.00;1.00;;;;;-146.67;30.24;73920.97;5100131;27;62200;-81
2023/07/11 00:30:58;;;;;;;;;3.67;1.67;;;;;-146.67;30.27;73924.97;5084168;27;62276;-81
2023/07/11 00:33:23;;;;;;;;;1.67;1.67;;;;;-146.67;30.13;73930.97;5084049;27;61910;-81
2023/07/11 00:35:51;;;;;;;;;1.00;1.00;;;;;-146.67;29.97;73938.94;5085659;27;61754;-81
2023/07/11 00:38:17;;;;;;;;;2.00;1.67;;;;;-146.67;30.07;73940.94;5085802;28;62086;-81
2023/07/11 00:40:44;;;;;;;;;3.00;2.00;;;;;-146.67;30.04;73942.94;5084063;27;61831;-81
2023/07/11 00:43:12;;;;;;;;;4.67;1.67;;;;;-146.67;29.96;73952.91;5084029;27;61793;-81
2023/07/11 00:46:04;;;;;;;;;2.67;0.67;;;;;-146.67;30.05;73954.91;5083825;28;61956;-81
2023/07/11 00:48:33;;;;;;;;;2.33;1.67;;;;;-146.67;30.00;73954.91;5084055;28;61795;-81
2023/07/11 00:50:59;;;;;;;;;2.00;2.00;;;;;-146.67;30.25;73972.88;5082780;28;63704;-81
2023/07/11 00:53:27;;;;;;;;;2.33;2.33;;;;;-146.67;30.57;73984.84;5083801;27;61865;-81
2023/07/11 00:55:54;;;;;;;;;4.00;1.00;;;;;-146.67;30.69;73996.84;5084679;27;61725;-81
2023/07/11 00:58:22;;;;;;;;;5.00;4.00;;;;;-146.67;30.84;73996.84;5083771;27;61787;-81
2023/07/11 01:00:48;;;;;;;;;3.33;2.67;;;;;-146.67;30.94;73998.84;5099793;27;64159;-81
2023/07/11 01:03:13;;;;;;;;;4.00;2.33;;;;;-146.67;31.19;74008.81;5078454;28;62071;-81
2023/07/11 01:05:39;;;;;;;;;4.00;2.67;;;;;-146.67;31.06;74016.78;5063090;28;61988;-81
2023/07/11 01:08:05;;;;;;;;;3.67;2.00;;;;;-146.67;31.06;74016.78;5063238;28;62197;-81
2023/07/11 01:10:31;;;;;;;;;4.00;2.67;;;;;-146.67;31.05;74022.78;5064230;28;61822;-81
2023/07/11 01:13:03;;;;;;;;;3.67;2.67;;;;;-146.67;31.28;74028.78;5064166;28;61744;-81
2023/07/11 01:15:28;;;;;;;;;3.00;2.00;;;;;-146.67;31.56;74044.75;5064714;28;61834;-81
2023/07/11 01:17:54;;;;;;;;;2.33;1.67;;;;;-146.67;31.32;74032.75;5079355;27;62773;-81
2023/07/11 01:20:22;;;;;;;;;3.33;3.00;;;;;-146.67;31.62;74040.75;5061984;28;63863;-81
2023/07/11 01:22:49;;;;;;;;;4.00;3.00;;;;;-146.67;31.57;74036.75;5062522;28;61960;-81
2023/07/11 01:25:15;;;;;;;;;2.00;2.00;;;;;-146.67;31.52;74032.75;5064544;28;61855;-81
2023/07/11 01:27:46;;;;;;;;;4.00;2.33;;;;;-146.67;31.54;74028.78;5064494;28;62005;-81
2023/07/11 01:30:14;;;;;;;;;1.67;1.00;;;;;-146.67;31.63;74028.78;5062539;28;63586;-81
2023/07/11 01:32:40;;;;;;;;;3.00;3.00;;;;;-146.67;31.59;74032.75;5064238;28;61800;-81
2023/07/11 01:35:06;;;;;;;;;2.00;2.00;;;;;-146.67;31.62;74026.78;5062718;28;62117;-82
2023/07/11 01:37:32;;;;;;;;;1.33;1.33;;;;;-146.67;31.74;74018.78;5062772;28;61690;-81
2023/07/11 01:39:57;;;;;;;;;2.00;2.00;;;;;-146.67;31.45;74020.78;5061994;28;64949;-81
2023/07/11 01:42:25;;;;;;;;;4.00;3.00;;;;;-146.67;31.69;74020.78;5062698;28;61856;-81
2023/07/11 01:44:51;;;;;;;;;4.25;3.00;;;;;-146.67;31.85;74014.81;5063854;28;62032;-81
2023/07/11 01:47:16;;;;;;;;;5.75;2.00;;;;;-146.67;31.94;74012.81;5079770;27;61985;-81
2023/07/11 01:49:41;;;;;;;;;2.67;2.67;;;;;-146.67;32.26;74022.78;5063052;28;61845;-81
2023/07/11 01:52:07;;;;;;;;;5.33;2.00;;;;;-146.67;32.13;74024.78;5062124;28;61794;-81
2023/07/11 01:54:32;;;;;;;;;3.25;2.00;;;;;-146.67;32.07;74020.78;5062545;28;61836;-81
2023/07/11 01:56:59;;;;;;;;;5.00;3.33;;;;;-146.67;32.34;74020.78;5063691;28;61893;-81
2023/07/11 01:59:25;;;;;;;;;2.00;2.00;;;;;-146.67;32.10;74024.78;5061897;28;64781;-81
2023/07/11 02:01:50;;;;;;;;;1.33;1.33;;;;;-146.67;32.51;74022.78;5063713;28;61906;-81
2023/07/11 02:04:21;;;;;;;;;3.33;2.67;;;;;-146.67;32.42;74018.78;5084020;27;62095;-81
2023/07/11 02:06:47;;;;;;;;;2.75;2.75;;;;;-146.67;32.61;74020.78;5083908;27;61913;-81
2023/07/11 02:09:12;;;;;;;;;2.00;2.00;;;;;-146.67;32.64;74018.78;5083458;27;61825;-81
2023/07/11 02:11:38;;;;;;;;;2.75;2.75;;;;;-146.67;32.65;74024.78;5083879;27;61908;-81
2023/07/11 02:14:03;;;;;;;;;2.00;1.33;;;;;-146.67;32.97;74026.78;5083639;27;61758;-81
2023/07/11 02:16:37;;;;;;;;;5.00;2.75;;;;;-146.67;32.97;74030.78;5081753;28;61812;-81
2023/07/11 02:19:02;;;;;;;;;2.50;2.00;;;;;-146.67;33.20;74030.78;5097858;27;63708;-81
2023/07/11 02:21:27;;;;;;;;;4.50;3.50;;;;;-146.67;33.11;74032.75;5082317;27;61853;-80
2023/07/11 02:23:53;;;;;;;;;3.00;2.67;;;;;-146.67;33.08;74034.75;5081249;27;62244;-81
2023/07/11 02:26:18;;;;;;;;;1.67;1.67;;;;;-146.67;33.05;74032.75;5082635;27;62086;-81
2023/07/11 02:28:43;;;;;;;;;7.75;2.00;;;;;-146.67;33.21;74032.75;5081696;28;62064;-81
2023/07/11 02:31:09;;;;;;;;;3.33;2.00;;;;;-146.67;33.10;74040.75;5097564;27;61942;-81
2023/07/11 02:33:34;;;;;;;;;2.67;2.33;;;;;-146.67;33.32;74046.75;5083033;27;61846;-81
2023/07/11 02:35:59;;;;;;;;;4.00;3.00;;;;;-146.67;33.55;74044.75;5081880;27;61885;-81
2023/07/11 02:38:25;;;;;;;;;3.00;2.00;;;;;-146.67;33.52;74046.75;5096643;27;64858;-81
2023/07/11 02:40:50;;;;;;;;;4.25;3.00;;;;;-146.67;33.40;74050.72;5081336;28;62088;-80
2023/07/11 02:43:18;;;;;;;;;2.00;2.00;;;;;-146.67;33.40;74048.75;5081234;27;61886;-81
2023/07/11 02:45:44;;;;;;;;;3.67;2.67;;;;;-146.67;33.41;74054.72;5080238;28;61781;-81
2023/07/11 02:48:09;;;;;;;;;3.00;2.00;;;;;-146.67;33.41;74054.72;5079198;27;64748;-81
2023/07/11 02:50:34;;;;;;;;;3.75;2.75;;;;;-146.67;33.52;74060.72;5079093;27;61815;-81
2023/07/11 02:53:00;;;;;;;;;3.75;3.00;;;;;-146.67;33.65;74066.69;5085879;27;62487;-81
2023/07/11 02:55:25;;;;;;;;;2.75;2.25;;;;;-146.67;33.57;74062.72;5061865;28;61866;-81
2023/07/11 02:57:51;;;;;;;;;4.75;4.25;;;;;-146.67;33.66;74056.72;5062284;28;63087;-81
2023/07/11 03:00:16;;;;;;;;;1.50;1.50;;;;;-146.67;33.37;74046.75;5078309;28;61896;-81
2023/07/11 03:02:42;;;;;;;;;3.00;3.00;;;;;-146.67;33.69;74050.72;5071231;28;62074;-81
2023/07/11 03:05:07;;;;;;;;;1.50;1.00;;;;;-146.67;33.94;74044.75;5081544;28;61861;-81
2023/07/11 03:07:33;;;;;;;;;2.25;2.00;;;;;-146.67;33.56;74048.75;5082626;28;61820;-81
2023/07/11 03:09:59;;;;;;;;;2.25;2.00;;;;;-146.67;33.61;74052.72;5081816;27;61916;-81
2023/07/11 03:12:24;;;;;;;;;7.00;3.33;;;;;-146.67;33.80;74050.72;5081518;27;61996;-81
2023/07/11 03:14:50;;;;;;;;;3.25;3.00;;;;;-146.67;33.82;74054.72;5098707;27;61766;-81
2023/07/11 03:17:16;;;;;;;;;3.75;2.50;;;;;-146.67;34.11;74058.72;5080959;28;63944;-81
2023/07/11 03:19:42;;;;;;;;;2.25;2.25;;;;;-146.67;34.01;74072.69;5082220;28;61937;-81
2023/07/11 03:22:07;;;;;;;;;2.75;2.75;;;;;-146.67;33.99;74068.69;5081163;28;61920;-81
2023/07/11 03:24:33;;;;;;;;;3.75;3.00;;;;;-146.67;34.08;74072.69;5081904;28;61811;-81
2023/07/11 03:26:58;;;;;;;;;4.00;4.00;;;;;-146.67;34.08;74064.72;5082207;27;63165;-81
2023/07/11 03:29:24;;;;;;;;;4.00;4.00;;;;;-146.67;34.06;74070.69;5098341;27;61760;-81
2023/07/11 03:31:49;;;;;;;;;6.25;5.00;;;;;-146.67;34.14;74060.72;5083099;28;62195;-81
2023/07/11 03:34:14;;;;;;;;;8.50;6.75;;;;;-146.67;34.11;74064.72;5082310;28;62183;-81
2023/07/11 03:36:42;;;;;;;;;7.25;5.75;;;;;-146.67;34.28;74062.72;5097729;27;63799;-81
2023/07/11 03:39:08;;;;;;;;;7.00;5.25;;;;;-146.67;34.42;74062.72;5081446;27;61916;-81
2023/07/11 03:41:33;;;;;;;;;5.25;3.50;;;;;-146.67;34.41;74070.69;5081895;28;62043;-81
2023/07/11 03:44:00;;;;;;;;;5.00;4.00;;;;;-146.67;34.31;74064.72;5082626;27;61879;-81
2023/07/11 03:46:25;;;;;;;;;5.50;2.50;;;;;-146.67;34.28;74074.69;5081922;28;62210;-81
2023/07/11 03:48:53;;;;;;;;;3.75;3.00;;;;;-146.67;34.36;74068.69;5097261;27;61941;-81
2023/07/11 03:51:19;;;;;;;;;2.67;2.67;;;;;-146.67;34.39;74076.69;5081243;28;61777;-81
2023/07/11 03:53:44;;;;;;;;;6.00;3.00;;;;;-146.67;34.46;74074.69;5082697;28;61810;-81
2023/07/11 03:56:09;;;;;;;;;3.00;2.67;;;;;-146.67;34.33;74074.69;5080461;27;63454;-81
2023/07/11 03:58:35;;;;;;;;;2.50;2.50;;;;;-146.67;34.51;74070.69;5082190;27;61804;-81
2023/07/11 04:01:00;;;;;;;;;5.50;3.00;;;;;-146.67;34.53;74080.69;5082438;28;61879;-81
2023/07/11 04:03:26;;;;;;;;;3.75;3.00;;;;;-146.67;34.51;74070.69;5081721;28;61995;-81
2023/07/11 04:05:54;;;;;;;;;1.67;1.67;;;;;-146.67;34.47;74070.69;5062338;28;64830;-81
2023/07/11 04:08:19;;;;;;;;;3.00;3.00;;;;;-146.67;34.78;74070.69;5077581;28;61825;-81
2023/07/11 04:10:44;;;;;;;;;4.25;2.75;;;;;-146.67;34.57;74070.69;5077429;28;61911;-81
2023/07/11 04:13:10;;;;;;;;;5.00;4.00;;;;;-146.67;34.79;74074.69;5077649;27;61711;-81
2023/07/11 04:15:35;;;;;;;;;3.50;3.25;;;;;-146.67;34.70;74074.69;5059712;28;64026;-81
2023/07/11 04:18:00;;;;;;;;;3.25;3.25;;;;;-146.67;34.77;74072.69;5061418;28;61892;-81
2023/07/11 04:20:26;;;;;;;;;3.00;3.00;;;;;-146.67;34.86;74072.69;5061270;28;61878;-81
2023/07/11 04:22:51;;;;;;;;;3.25;3.25;;;;;-146.67;34.84;74074.69;5060754;28;61804;-81
2023/07/11 04:25:17;;;;;;;;;3.25;3.25;;;;;-146.67;34.87;74074.69;5061431;28;62970;-79
2023/07/11 04:27:42;;;;;;;;;2.25;2.00;;;;;-146.67;34.76;74074.69;5077267;28;61761;-81
2023/07/11 04:30:08;;;;;;;;;2.67;2.67;;;;;-146.67;34.94;74070.69;5060449;28;61737;-81
2023/07/11 04:32:33;;;;;;;;;3.00;2.75;;;;;-146.67;34.96;74076.69;5061464;28;61731;-81
2023/07/11 04:34:59;;;;;;;;;2.25;2.25;;;;;-146.67;35.04;74070.69;5059559;28;64640;-81
2023/07/11 04:37:24;;;;;;;;;4.75;2.25;;;;;-146.67;35.03;74066.69;5077090;28;62139;-81
2023/07/11 04:39:50;;;;;;;;;4.00;2.00;;;;;-146.67;34.90;74066.69;5060374;28;61817;-81
2023/07/11 04:42:15;;;;;;;;;3.00;0.75;;;;;-146.67;35.18;74060.72;5061601;28;61789;-81
2023/07/11 04:44:41;;;;;;;;;4.00;4.00;;;;;-146.67;34.94;74058.72;5059432;28;63749;-81
2023/07/11 04:47:06;;;;;;;;;4.25;2.00;;;;;-146.67;35.02;74054.72;5059948;28;62080;-81
2023/07/11 04:49:32;;;;;;;;;6.00;4.00;;;;;-146.67;35.02;74054.72;5060907;28;61964;-81
2023/07/11 04:51:57;;;;;;;;;3.25;3.00;;;;;-146.67;35.00;74066.69;5061834;28;61888;-81
2023/07/11 04:54:23;;;;;;;;;5.25;3.25;;;;;-146.67;35.10;74082.69;5062729;28;64656;-81
2023/07/11 04:56:58;;;;;;;;;4.50;4.00;;;;;-146.67;35.02;74088.66;5080334;28;61906;-81
2023/07/11 04:59:24;;;;;;;;;6.25;5.25;;;;;-146.67;35.42;74102.63;5064941;28;61822;-81
2023/07/11 05:01:50;;;;;;;;;3.00;3.00;;;;;-146.67;35.10;74104.63;5065496;28;61734;-81
2023/07/11 05:04:15;;;;;;;;;3.50;3.50;;;;;-146.67;35.12;74096.66;5079493;27;63678;-81
2023/07/11 05:06:41;;;;;;;;;5.00;3.00;;;;;-146.67;34.93;74094.66;5063167;28;62047;-81
2023/07/11 05:09:06;;;;;;;;;4.50;4.00;;;;;-146.67;35.04;74074.69;5063462;28;61751;-81
2023/07/11 05:11:32;;;;;;;;;4.67;4.67;;;;;-146.67;34.90;74072.69;5063225;28;62170;-81
2023/07/11 05:13:57;;;;;;;;;7.00;4.50;;;;;-146.67;34.67;74060.72;5062463;28;64060;-82
2023/07/11 05:16:25;;;;;;;;;5.00;5.00;;;;;-146.67;34.72;74044.75;5079885;27;61790;-84
2023/07/11 05:18:50;;;;;;;;;3.00;3.00;;;;;-146.67;34.57;74042.75;5061830;28;61861;-86
2023/07/11 05:21:18;;;;;;;;;4.00;2.50;;;;;-146.67;34.43;74030.78;5062854;28;61889;-85
2023/07/11 05:23:46;;;;;;;;;6.00;2.33;;;;;-146.67;34.48;74026.78;5079096;27;63736;-83
2023/07/11 05:26:12;;;;;;;;;2.75;1.75;;;;;-146.67;34.19;74024.78;5084367;28;61842;-83
2023/07/11 05:28:37;;;;;;;;;4.00;2.75;;;;;-146.67;34.29;74006.81;5067923;28;61870;-83
2023/07/11 05:31:06;;;;;;;;;4.33;3.00;;;;;-146.67;34.14;73992.84;5095256;27;61861;-83
2023/07/11 05:33:33;;;;;;;;;1.67;1.67;;;;;-146.67;33.88;73986.84;5076312;28;61818;-84
2023/07/11 05:36:48;;;;;;;;;2.00;2.00;;;;;-146.67;33.59;73976.88;5073884;27;61877;-85
2023/07/11 05:39:10;;;;;;;;;3.67;2.00;;;;;-146.67;33.29;73924.97;5071524;28;61845;-82
2023/07/11 05:41:38;;;;;;;;;2.00;2.00;;;;;-146.67;32.95;73895.03;5089223;27;61972;-83
2023/07/11 05:44:04;;;;;;;;;2.33;2.00;;;;;-146.67;32.19;73807.19;5086580;27;64863;-86
2023/07/11 05:46:30;;;;;;;;;3.67;2.00;;;;;-146.67;31.26;73707.41;5094534;27;61872;-81
2023/07/11 05:48:57;;;;;;;;;3.67;3.67;;;;;-146.67;31.04;73631.53;5062856;28;61910;-87
2023/07/11 05:51:23;;;;;;;;;2.67;2.67;;;;;-146.67;30.69;73573.66;5068085;27;61912;-80
2023/07/11 05:53:49;;;;;;;;;3.67;3.33;;;;;-146.67;30.36;73537.75;5082243;27;63634;-80
2023/07/11 05:56:16;;;;;;;;;4.33;3.33;;;;;-146.67;30.00;73545.72;5099510;27;61844;-81
2023/07/11 05:58:44;;;;;;;;;2.00;2.00;;;;;-146.67;30.17;73527.75;5067417;27;61927;-80
2023/07/11 06:01:16;;;;;;;;;3.00;1.33;;;;;-146.67;29.63;73449.91;5064048;28;61634;-80
2023/07/11 06:03:45;;;;;;;;;2.67;1.33;;;;;-146.67;29.74;73457.91;5077848;27;63779;-80
2023/07/11 06:06:11;;;;;;;;;4.67;2.00;;;;;-146.67;29.74;73459.91;5082504;27;61884;-80
2023/07/11 06:08:37;;;;;;;;;3.33;1.33;;;;;-146.67;29.67;73465.88;5083837;27;61885;-79
2023/07/11 06:11:04;;;;;;;;;2.00;2.00;;;;;-146.67;29.85;73477.84;5083826;27;61925;-78
2023/07/11 06:13:31;;;;;;;;;2.00;2.00;;;;;-146.67;29.84;73483.84;5082481;28;61984;-77
2023/07/11 06:15:59;;;;;;;;;1.67;1.67;;;;;-146.67;30.08;73483.84;5079924;28;61936;-82
2023/07/11 06:18:25;;;;;;;;;4.67;2.00;;;;;-146.67;30.04;73485.84;5083898;28;61810;-82
2023/07/11 06:20:50;;;;;;;;;2.33;2.00;;;;;-146.67;29.78;73471.88;5083293;28;61867;-83
2023/07/11 06:23:16;;;;;;;;;3.00;3.00;;;;;-146.67;29.89;73463.88;5078804;28;62122;-85
2023/07/11 06:25:41;;;;;;;;;6.00;3.00;;;;;-146.67;29.45;73471.88;5070768;27;62034;-85
2023/07/11 06:28:07;;;;;;;;;2.00;2.00;;;;;-146.67;29.80;73425.97;5088635;27;61780;-83
2023/07/11 06:30:32;;;;;;;;;3.67;2.00;;;;;-146.67;28.88;73334.16;5073463;28;61944;-80
2023/07/11 06:33:02;;;;;;;;;2.67;2.00;;;;;-146.67;28.58;73260.31;5086363;27;64836;-82
2023/07/11 06:35:27;;;;;;;;;3.00;2.00;;;;;-146.67;28.21;73248.34;5087185;27;61922;-79
2023/07/11 06:37:53;;;;;;;;;2.00;2.00;;;;;-146.67;28.51;73278.28;5083343;28;62292;-86
2023/07/11 06:40:18;;;;;;;;;3.00;1.67;;;;;-146.67;28.39;73280.25;5074212;27;62278;-84
2023/07/11 06:42:43;;;;;;;;;2.00;2.00;;;;;-146.67;28.47;73288.25;5077653;28;63989;-83
2023/07/11 06:45:09;;;;;;;;;2.00;2.00;;;;;-146.67;28.84;73346.13;5079344;28;61833;-82
2023/07/11 06:47:38;;;;;;;;;1.00;1.00;;;;;-146.67;28.93;73388.03;5069014;28;62081;-84
2023/07/11 06:50:08;;;;;;;;;0.67;0.67;;;;;-146.67;29.48;73421.97;5078369;28;62037;-83
2023/07/11 06:52:33;;;;;;;;;1.67;1.67;;;;;-146.67;29.49;73443.94;5082645;28;61808;-78
2023/07/11 06:54:59;;;;;;;;;2.00;1.00;;;;;-146.67;29.29;73473.88;5081593;27;61900;-79
2023/07/11 06:57:25;;;;;;;;;2.00;2.00;;;;;-146.67;29.58;73491.84;5081317;27;61933;-79
2023/07/11 06:59:50;;;;;;;;;2.33;1.67;;;;;-146.67;29.71;73501.81;5082988;27;62181;-80
2023/07/11 07:02:16;;;;;;;;;2.33;1.33;;;;;-146.67;29.97;73507.78;5087071;27;63465;-82
2023/07/11 07:04:41;;;;;;;;;2.00;2.00;;;;;-146.67;29.69;73509.78;5062867;28;61986;-84
2023/07/11 07:07:06;;;;;;;;;1.00;1.00;;;;;-146.67;29.96;73517.78;5078519;28;61793;-83
2023/07/11 07:09:32;;;;;;;;;2.67;2.00;;;;;-146.67;30.17;73507.78;5062791;28;61723;-85
2023/07/11 07:11:57;;;;;;;;;4.00;3.00;;;;;-146.67;30.04;73511.78;5076969;28;63639;-85
2023/07/11 07:14:22;;;;;;;;;3.33;1.33;;;;;-146.67;30.36;73517.78;5077964;28;61991;-85
2023/07/11 07:16:48;;;;;;;;;1.67;1.67;;;;;-146.67;30.29;73537.75;5068064;27;61964;-80
2023/07/11 07:19:13;;;;;;;;;2.33;2.33;;;;;-146.67;30.49;73521.78;5079255;27;62210;-83
2023/07/11 07:21:39;;;;;;;;;3.00;3.00;;;;;-146.67;30.34;73533.75;5095943;27;63561;-84
2023/07/11 07:24:05;;;;;;;;;1.67;1.67;;;;;-146.67;30.37;73565.69;5089244;27;63219;-79
2023/07/11 07:26:31;;;;;;;;;2.00;2.00;;;;;-146.67;30.74;73559.69;5072837;28;62130;-82
2023/07/11 07:28:56;;;;;;;;;4.67;2.00;;;;;-146.67;30.16;73545.72;5092906;27;61763;-81
2023/07/11 07:31:22;;;;;;;;;2.00;2.00;;;;;-146.67;30.49;73553.72;5081948;27;63158;-79
2023/07/11 07:33:48;;;;;;;;;1.33;1.00;;;;;-146.67;30.60;73549.72;5098350;27;62164;-81
2023/07/11 07:36:14;;;;;;;;;3.67;1.00;;;;;-146.67;30.23;73553.72;5081324;28;61923;-86
2023/07/11 07:38:40;;;;;;;;;1.33;1.00;;;;;-146.67;30.31;73549.72;5098088;27;62301;-85
2023/07/11 07:41:09;;;;;;;;;2.00;2.00;;;;;-146.67;30.26;73547.72;5080137;28;63634;-80
2023/07/11 07:43:36;;;;;;;;;2.33;1.33;;;;;-146.67;30.35;73555.69;5082024;27;62007;-84
2023/07/11 07:46:03;;;;;;;;;3.33;2.33;;;;;-146.67;30.57;73553.72;5094766;27;61792;-79
2023/07/11 07:48:29;;;;;;;;;2.00;1.00;;;;;-146.67;30.44;73547.72;5098186;27;62094;-83
2023/07/11 07:51:09;;;;;;;;;2.00;2.00;;;;;-146.67;30.41;73561.69;5078681;27;61798;-85
2023/07/11 07:53:35;;;;;;;;;1.33;1.33;;;;;-146.67;30.46;73569.66;5082138;27;62018;-83
2023/07/11 07:56:08;;;;;;;;;2.67;2.00;;;;;-146.67;30.47;73575.66;5081942;28;61932;-84
2023/07/11 07:58:34;;;;;;;;;4.00;2.67;;;;;-146.67;30.77;73585.63;5098143;27;62063;-84
2023/07/11 08:00:59;;;;;;;;;4.00;2.00;;;;;-146.67;30.83;73577.66;5080426;28;63567;-82
2023/07/11 08:03:25;;;;;;;;;2.67;2.00;;;;;-146.67;30.74;73565.69;5081947;28;61698;-83
2023/07/11 08:05:54;;;;;;;;;1.67;1.00;;;;;-146.67;30.83;73571.66;5078202;28;62148;-84
2023/07/11 08:08:20;;;;;;;;;1.33;1.33;;;;;-146.67;30.63;73569.66;5072955;27;62113;-83
2023/07/11 08:10:46;;;;;;;;;1.00;1.00;;;;;-146.67;30.90;73561.69;5073569;28;63411;-83
2023/07/11 08:13:11;;;;;;;;;3.33;1.00;;;;;-146.67;30.77;73541.72;5080962;28;61943;-85
2023/07/11 08:15:36;;;;;;;;;2.67;1.00;;;;;-146.67;30.90;73535.75;5082398;27;61727;-88
2023/07/11 08:18:02;;;;;;;;;2.00;1.67;;;;;-146.67;31.07;73535.75;5081106;27;61897;-81
2023/07/11 08:20:27;;;;;;;;;2.67;1.00;;;;;-146.67;30.82;73523.75;5067607;27;62851;-81
2023/07/11 08:22:54;;;;;;;;;1.67;1.33;;;;;-146.67;31.15;73517.78;5058339;28;61862;-81
2023/07/11 08:25:20;;;;;;;;;1.67;1.67;;;;;-146.67;31.00;73507.78;5059861;28;61915;-81
2023/07/11 08:27:45;;;;;;;;;2.00;2.00;;;;;-146.67;30.98;73521.78;5079742;28;61981;-81
2023/07/11 08:30:11;;;;;;;;;2.33;2.00;;;;;-146.67;31.38;73519.78;5063389;28;63516;-81
2023/07/11 08:32:38;;;;;;;;;3.00;3.00;;;;;-146.67;31.05;73495.81;5065337;28;61885;-81
2023/07/11 08:35:05;;;;;;;;;3.00;1.00;;;;;-146.67;30.98;73503.81;5064070;28;61865;-80
2023/07/11 08:37:30;;;;;;;;;4.33;2.33;;;;;-146.67;31.07;73487.84;5065275;28;62087;-81
2023/07/11 08:39:55;;;;;;;;;2.33;1.33;;;;;-146.67;31.09;73483.84;5062712;28;63355;-81
2023/07/11 08:42:33;;;;;;;;;4.00;3.00;;;;;-146.67;30.79;73471.88;5065159;28;62131;-81
2023/07/11 08:45:05;;;;;;;;;2.00;2.00;;;;;-146.67;31.15;73477.84;5080629;28;61901;-81
2023/07/11 08:47:39;;;;;;;;;3.00;2.00;;;;;-146.67;30.60;73477.84;5063861;28;61864;-81
2023/07/11 08:50:15;;;;;;;;;3.00;2.67;;;;;-146.67;31.09;73473.88;5079477;28;63796;-81
2023/07/11 08:52:43;;;;;;;;;6.00;2.67;;;;;-146.67;30.83;73475.88;5064556;28;61882;-81
2023/07/11 08:55:24;;;;;;;;;3.00;2.67;;;;;-146.67;30.91;73469.88;5080449;27;61802;-81
2023/07/11 08:58:10;;;;;;;;;2.67;2.67;;;;;-146.67;31.03;73467.88;5080461;27;61912;-81
2023/07/11 09:00:36;;;;;;;;;2.00;2.00;;;;;-146.67;31.08;73457.91;5063004;28;63630;-81
2023/07/11 09:03:16;;;;;;;;;4.67;3.33;;;;;-146.67;30.90;73433.94;5075472;28;61676;-81
2023/07/11 09:06:13;;;;;;;;;5.67;5.00;;;;;-146.67;30.97;73429.97;5100760;27;61790;-81
2023/07/11 09:08:43;;;;;;;;;3.00;3.00;;;;;-146.67;31.17;73415.97;5075228;28;62184;-81
2023/07/11 09:11:15;;;;;;;;;4.33;3.33;;;;;-146.67;31.24;73421.97;5084188;27;62446;-81
2023/07/11 09:14:01;;;;;;;;;4.33;3.67;;;;;-146.67;31.24;73417.97;5084811;27;61774;-81
2023/07/11 09:16:26;;;;;;;;;3.33;3.33;;;;;-146.67;31.34;73408.00;5084960;27;61807;-81
2023/07/11 09:19:18;;;;;;;;;4.00;3.67;;;;;-146.67;31.25;73396.03;5084339;27;61749;-81
2023/07/11 09:21:59;;;;;;;;;4.00;2.00;;;;;-146.67;31.09;73394.03;5083493;27;62863;-81
2023/07/11 09:24:41;;;;;;;;;4.33;3.67;;;;;-146.67;31.31;73386.03;5083094;27;62035;-80
2023/07/11 09:27:24;;;;;;;;;4.33;3.33;;;;;-146.67;30.92;73380.06;5084664;28;62009;-81
2023/07/11 09:29:50;;;;;;;;;3.33;3.33;;;;;-146.67;30.88;73384.06;5084924;28;61782;-81
2023/07/11 09:32:17;;;;;;;;;3.33;3.33;;;;;-146.67;31.00;73392.03;5082520;28;64822;-81
2023/07/11 09:34:50;;;;;;;;;2.33;2.33;;;;;-146.67;30.86;73392.03;5083083;27;61925;-80
2023/07/11 09:37:27;;;;;;;;;3.00;3.00;;;;;-146.67;30.94;73384.06;5083175;27;61878;-81
2023/07/11 09:40:09;;;;;;;;;3.00;3.00;;;;;-146.67;30.96;73370.06;5084080;27;62040;-80
2023/07/11 09:42:48;;;;;;;;;4.33;4.33;;;;;-146.67;30.94;73360.09;5083872;27;62610;-81
2023/07/11 09:45:20;;;;;;;;;2.67;2.67;;;;;-146.67;30.88;73342.13;5084574;28;61835;-81
2023/07/11 09:47:58;;;;;;;;;2.33;2.33;;;;;-146.67;30.74;73322.19;5084540;27;61758;-82
2023/07/11 09:50:47;;;;;;;;;5.00;4.33;;;;;-146.67;30.72;73330.16;5083864;28;61859;-81
2023/07/11 09:53:23;;;;;;;;;4.00;4.00;;;;;-146.67;30.68;73324.16;5081965;28;63675;-81
2023/07/11 09:55:59;;;;;;;;;4.00;2.67;;;;;-146.67;30.77;73314.19;5084340;27;61902;-80
2023/07/11 09:58:33;;;;;;;;;3.00;3.00;;;;;-146.67;30.59;73312.19;5084304;27;61791;-81
2023/07/11 10:01:03;;;;;;;;;3.67;3.00;;;;;-146.67;30.72;73302.22;5099973;27;61849;-80
2023/07/11 10:03:30;;;;;;;;;5.33;4.00;;;;;-146.67;30.50;73290.25;5071007;27;63996;-81
2023/07/11 10:05:56;;;;;;;;;2.33;1.33;;;;;-146.67;29.90;73278.28;5063540;28;61830;-81
2023/07/11 10:08:29;;;;;;;;;4.00;3.00;;;;;-146.67;29.79;73232.38;5079397;28;61796;-80
2023/07/11 10:11:01;;;;;;;;;4.33;3.00;;;;;-146.67;29.82;73238.34;5062553;28;62035;-80
2023/07/11 10:13:26;;;;;;;;;4.00;4.00;;;;;-146.67;29.32;73240.34;5061447;28;63895;-80
2023/07/11 10:15:55;;;;;;;;;2.67;2.67;;;;;-146.67;29.76;73218.41;5063721;28;61808;-80
2023/07/11 10:18:32;;;;;;;;;3.00;3.00;;;;;-146.67;29.69;73192.44;5063851;28;61868;-81
2023/07/11 10:21:11;;;;;;;;;5.00;3.00;;;;;-146.67;29.61;73194.44;5078284;27;61976;-80
2023/07/11 10:23:36;;;;;;;;;4.67;3.00;;;;;-146.67;29.39;73188.47;5062949;28;61811;-80
2023/07/11 10:26:21;;;;;;;;;2.33;1.33;;;;;-146.67;29.38;73170.50;5063298;28;61791;-81
2023/07/11 10:29:01;;;;;;;;;3.67;2.00;;;;;-146.67;29.21;73150.53;5063436;28;61738;-81
2023/07/11 10:31:33;;;;;;;;;5.00;4.00;;;;;-146.67;29.20;73132.56;5063438;28;61844;-81
2023/07/11 10:34:13;;;;;;;;;5.33;3.33;;;;;-146.67;29.34;73120.59;5061083;28;63770;-81
2023/07/11 10:36:45;;;;;;;;;4.00;3.00;;;;;-146.67;29.22;73116.59;5063254;28;61828;-81
2023/07/11 10:39:24;;;;;;;;;3.33;3.33;;;;;-146.67;29.24;73098.66;5061973;28;61889;-81
2023/07/11 10:42:28;;;;;;;;;3.00;2.00;;;;;-146.67;28.92;73074.69;5062194;28;62158;-81
2023/07/11 10:45:07;;;;;;;;;4.00;3.00;;;;;-146.67;29.08;73072.69;5043112;28;63473;-81
2023/07/11 10:47:39;;;;;;;;;3.00;3.00;;;;;-146.67;28.71;73060.72;5060587;28;61801;-80
2023/07/11 10:50:22;;;;;;;;;2.33;2.33;;;;;-146.67;29.12;73042.75;5041665;28;61997;-80
2023/07/11 10:52:52;;;;;;;;;5.00;1.33;;;;;-146.67;28.68;73028.78;5043679;28;62042;-78
2023/07/11 10:55:25;;;;;;;;;2.00;2.00;;;;;-146.67;28.84;73012.84;5059768;28;61989;-80
2023/07/11 10:57:54;;;;;;;;;2.00;2.00;;;;;-146.67;28.44;72998.84;5043969;28;62003;-82
2023/07/11 11:00:28;;;;;;;;;4.33;2.00;;;;;-146.67;28.36;72990.88;5060931;28;62112;-81
2023/07/11 11:03:12;;;;;;;;;1.67;1.67;;;;;-146.67;28.55;72970.91;5063997;28;62132;-81
2023/07/11 11:05:53;;;;;;;;;3.00;2.00;;;;;-146.67;28.44;72964.94;5059771;28;61861;-80
2023/07/11 11:08:29;;;;;;;;;3.33;1.67;;;;;-146.67;28.47;72950.97;5060159;28;62175;-80
2023/07/11 11:11:01;;;;;;;;;4.00;3.00;;;;;-146.67;28.15;72929.00;5043468;28;61932;-81
2023/07/11 11:13:36;;;;;;;;;2.00;2.00;;;;;-146.67;28.40;72905.06;5043028;28;62016;-81
2023/07/11 11:16:10;;;;;;;;;2.00;2.00;;;;;-146.67;28.17;72887.09;5042715;28;64653;-80
2023/07/11 11:18:45;;;;;;;;;2.33;2.00;;;;;-146.67;27.76;72869.13;5048384;28;62018;-81
2023/07/11 11:21:25;;;;;;;;;3.67;3.67;;;;;-146.67;27.86;72871.13;5061204;28;61886;-82
2023/07/11 11:24:20;;;;;;;;;2.67;2.33;;;;;-146.67;27.82;72849.19;5061571;28;62041;-81